Time;durP1;ratioP1;P1;durP2;ratioP2;P2;SDS_P1;SDS_P2;PMS_P1;PMS_P2;Temp;Humidity;BMP_temperature;BMP_pressure;BME280_temperature;BME280_humidity;BME280_pressure;Samples;Min_cycle;Max_cycle;Signal;HPM_P1;HPM_P2
2021/08/06 00:01:30;;;;;;;17.20;14.07;;;20.90;93.70;;;;;;5010970;28;20197;-72
2021/08/06 00:04:00;;;;;;;20.05;13.82;;;20.90;93.70;;;;;;5003038;28;20204;-70
2021/08/06 00:06:28;;;;;;;16.83;12.85;;;20.80;93.70;;;;;;5007177;28;20585;-71
2021/08/06 00:08:55;;;;;;;15.90;11.63;;;20.80;93.70;;;;;;5011437;28;20254;-72
2021/08/06 00:11:27;;;;;;;17.42;11.20;;;20.80;93.80;;;;;;5007949;28;20263;-73
2021/08/06 00:13:54;;;;;;;14.65;11.32;;;20.80;93.80;;;;;;5011250;28;20250;-73
2021/08/06 00:16:22;;;;;;;15.02;10.63;;;20.80;93.80;;;;;;5007782;28;20298;-71
2021/08/06 00:18:49;;;;;;;14.07;10.20;;;20.80;93.80;;;;;;5013212;28;20215;-73
2021/08/06 00:21:17;;;;;;;11.30;9.90;;;20.80;93.70;;;;;;5006908;28;20208;-73
2021/08/06 00:23:44;;;;;;;15.27;9.90;;;20.80;93.70;;;;;;5010773;28;20203;-70
2021/08/06 00:26:11;;;;;;;12.82;9.45;;;20.80;93.70;;;;;;5011538;28;20200;-71
2021/08/06 00:28:38;;;;;;;15.32;9.50;;;20.80;93.70;;;;;;5009753;28;20196;-73
2021/08/06 00:31:08;;;;;;;12.18;8.80;;;20.80;93.70;;;;;;5009729;28;20657;-71
2021/08/06 00:33:36;;;;;;;12.10;8.63;;;20.80;93.60;;;;;;5007893;28;20212;-70
2021/08/06 00:36:05;;;;;;;12.25;8.43;;;20.80;93.60;;;;;;5006540;28;20563;-71
2021/08/06 00:38:35;;;;;;;12.48;8.43;;;20.80;93.60;;;;;;5009882;28;20351;-70
2021/08/06 00:41:04;;;;;;;11.30;7.15;;;20.80;93.60;;;;;;5009327;28;20644;-71
2021/08/06 00:43:31;;;;;;;10.95;7.53;;;20.70;93.50;;;;;;5009824;28;20695;-72
2021/08/06 00:46:05;;;;;;;10.90;8.20;;;20.70;93.50;;;;;;5008372;28;20235;-71
2021/08/06 00:48:36;;;;;;;16.60;8.30;;;20.70;93.60;;;;;;5008300;28;20303;-72
2021/08/06 00:51:04;;;;;;;10.23;8.00;;;20.70;93.60;;;;;;5006945;28;20618;-71
2021/08/06 00:53:36;;;;;;;9.55;7.20;;;20.60;93.60;;;;;;5006260;28;20205;-71
2021/08/06 00:56:06;;;;;;;11.70;7.80;;;20.60;93.60;;;;;;5009022;28;20205;-71
2021/08/06 00:58:35;;;;;;;11.15;7.65;;;20.60;93.60;;;;;;5006697;28;20228;-72
2021/08/06 01:01:02;;;;;;;14.48;7.00;;;20.60;93.60;;;;;;5005982;28;20213;-71
2021/08/06 01:03:45;;;;;;;11.38;7.35;;;20.60;93.70;;;;;;5008134;28;20265;-71
2021/08/06 01:06:17;;;;;;;8.95;6.85;;;20.60;93.70;;;;;;5006322;28;20203;-72
2021/08/06 01:08:56;;;;;;;7.80;6.47;;;20.60;94.00;;;;;;5007325;28;20430;-73
2021/08/06 01:11:26;;;;;;;14.60;7.20;;;20.60;94.20;;;;;;5003717;28;20235;-74
2021/08/06 01:13:57;;;;;;;12.85;7.32;;;20.50;94.40;;;;;;5023344;28;20219;-73
2021/08/06 01:16:28;;;;;;;12.43;6.80;;;20.40;94.60;;;;;;5007295;28;20287;-75
2021/08/06 01:19:11;;;;;;;14.10;8.13;;;20.20;95.00;;;;;;5007159;28;20224;-70
2021/08/06 01:21:43;;;;;;;21.75;7.78;;;20.00;95.70;;;;;;5007223;28;20214;-73
2021/08/06 01:24:18;;;;;;;9.65;7.40;;;19.80;96.30;;;;;;5010397;28;20204;-69
2021/08/06 01:26:50;;;;;;;12.73;7.68;;;19.60;96.90;;;;;;5009545;28;20286;-71
2021/08/06 01:29:19;;;;;;;14.55;8.00;;;19.50;97.50;;;;;;5006961;28;20256;-69
2021/08/06 01:31:50;;;;;;;18.98;8.52;;;19.30;98.20;;;;;;5011229;28;20588;-72
2021/08/06 01:34:20;;;;;;;12.63;8.02;;;19.20;98.80;;;;;;5006612;28;21686;-71
2021/08/06 01:36:49;;;;;;;14.20;7.63;;;19.10;99.60;;;;;;5007849;28;20196;-72
2021/08/06 01:39:23;;;;;;;13.07;8.65;;;19.00;99.90;;;;;;5009482;28;20228;-72
2021/08/06 01:42:01;;;;;;;12.70;8.10;;;19.00;99.90;;;;;;5007620;28;20212;-70
2021/08/06 01:44:35;;;;;;;15.25;8.05;;;18.90;99.90;;;;;;5008867;28;20687;-73
2021/08/06 01:47:09;;;;;;;11.93;7.50;;;18.90;99.90;;;;;;5009158;28;20315;-70
2021/08/06 01:49:43;;;;;;;11.32;7.93;;;18.80;99.90;;;;;;5005221;28;20200;-70
2021/08/06 01:52:16;;;;;;;17.08;7.70;;;18.80;99.90;;;;;;5008702;28;20281;-72
2021/08/06 01:54:47;;;;;;;12.90;8.43;;;18.80;99.90;;;;;;5009957;28;20208;-71
2021/08/06 01:57:16;;;;;;;13.20;7.30;;;18.70;99.90;;;;;;5009220;28;20276;-68
2021/08/06 01:59:47;;;;;;;12.27;6.85;;;18.70;99.90;;;;;;5010021;28;20286;-71
2021/08/06 02:02:15;;;;;;;9.27;6.70;;;18.60;99.90;;;;;;5010553;28;20209;-73
2021/08/06 02:04:42;;;;;;;10.98;7.43;;;18.60;99.90;;;;;;5013639;28;20200;-73
2021/08/06 02:07:16;;;;;;;10.52;7.07;;;18.50;99.90;;;;;;5010023;28;20596;-71
2021/08/06 02:09:45;;;;;;;9.75;7.30;;;18.50;99.90;;;;;;5011799;28;20232;-71
2021/08/06 02:12:17;;;;;;;9.63;7.05;;;18.50;99.90;;;;;;5015413;28;20201;-73
2021/08/06 02:14:51;;;;;;;10.10;7.10;;;18.40;99.90;;;;;;5010582;28;20211;-73
2021/08/06 02:17:21;;;;;;;12.68;7.55;;;18.40;99.90;;;;;;5008596;28;20210;-72
2021/08/06 02:19:52;;;;;;;13.48;7.07;;;18.40;99.90;;;;;;5011806;28;20752;-72
2021/08/06 02:22:22;;;;;;;11.65;7.50;;;18.40;99.90;;;;;;5013165;28;20856;-71
2021/08/06 02:24:54;;;;;;;10.18;6.65;;;18.40;99.90;;;;;;5012156;28;20736;-73
2021/08/06 02:27:29;;;;;;;12.05;7.18;;;18.40;99.90;;;;;;5013206;28;20229;-72
2021/08/06 02:30:00;;;;;;;8.73;6.55;;;18.40;99.90;;;;;;5011186;28;20224;-74
2021/08/06 02:32:31;;;;;;;7.00;5.53;;;18.30;99.90;;;;;;5011199;28;20259;-72
2021/08/06 02:35:00;;;;;;;10.10;5.95;;;18.40;99.90;;;;;;5009940;28;20208;-72
2021/08/06 02:37:27;;;;;;;9.68;5.38;;;18.40;99.90;;;;;;5011622;28;20207;-73
2021/08/06 02:39:54;;;;;;;8.85;5.90;;;18.40;99.90;;;;;;5008722;28;20220;-72
2021/08/06 02:42:23;;;;;;;7.53;5.25;;;18.40;99.90;;;;;;5012294;28;20663;-71
2021/08/06 02:44:51;;;;;;;9.02;5.60;;;18.40;99.90;;;;;;5012061;28;20204;-73
2021/08/06 02:47:17;;;;;;;8.88;5.38;;;18.40;99.90;;;;;;5009549;28;20208;-71
2021/08/06 02:49:44;;;;;;;6.90;5.22;;;18.40;99.90;;;;;;5012588;28;20196;-70
2021/08/06 02:52:13;;;;;;;8.15;5.57;;;18.40;99.90;;;;;;5012153;28;20577;-72
2021/08/06 02:54:40;;;;;;;9.10;5.45;;;18.40;99.90;;;;;;5013658;28;20763;-72
2021/08/06 02:57:07;;;;;;;7.88;5.82;;;18.40;99.90;;;;;;5013171;28;20950;-72
2021/08/06 02:59:34;;;;;;;5.65;4.85;;;18.40;99.90;;;;;;5009223;28;20227;-72
2021/08/06 03:02:03;;;;;;;7.13;5.47;;;18.40;99.90;;;;;;5009996;28;20210;-73
2021/08/06 03:04:30;;;;;;;9.77;5.80;;;18.40;99.90;;;;;;5008646;28;20205;-73
2021/08/06 03:07:00;;;;;;;7.50;5.45;;;18.40;99.90;;;;;;5009990;28;20262;-72
2021/08/06 03:09:27;;;;;;;11.07;5.35;;;18.40;99.90;;;;;;5009342;28;20225;-73
2021/08/06 03:11:56;;;;;;;6.65;4.70;;;18.40;99.90;;;;;;5008186;28;20204;-72
2021/08/06 03:14:22;;;;;;;7.35;5.35;;;18.40;99.90;;;;;;5008960;28;20213;-71
2021/08/06 03:16:50;;;;;;;11.85;4.93;;;18.40;99.90;;;;;;5012423;28;20614;-67
2021/08/06 03:19:18;;;;;;;9.80;5.80;;;18.40;99.90;;;;;;5008220;28;20310;-71
2021/08/06 03:21:45;;;;;;;7.95;5.30;;;18.40;99.90;;;;;;5010125;28;20215;-70
2021/08/06 03:24:12;;;;;;;8.60;5.60;;;18.40;99.90;;;;;;5012112;28;20214;-70
2021/08/06 03:26:41;;;;;;;9.73;5.55;;;18.40;99.90;;;;;;5009142;28;20247;-72
2021/08/06 03:29:08;;;;;;;8.60;5.30;;;18.40;99.90;;;;;;5008590;28;20208;-70
2021/08/06 03:31:35;;;;;;;9.40;5.47;;;18.40;99.90;;;;;;5013961;28;20197;-70
2021/08/06 03:34:02;;;;;;;8.75;5.30;;;18.50;99.90;;;;;;5009933;28;20227;-69
2021/08/06 03:36:30;;;;;;;9.32;5.65;;;18.50;99.90;;;;;;5009717;28;20231;-72
2021/08/06 03:38:57;;;;;;;9.88;5.35;;;18.50;99.90;;;;;;5011835;28;20227;-72
2021/08/06 03:41:25;;;;;;;8.68;5.38;;;18.50;99.90;;;;;;5009626;28;20287;-70
2021/08/06 03:43:57;;;;;;;7.95;4.88;;;18.50;99.90;;;;;;5006172;28;20262;-71
2021/08/06 03:46:24;;;;;;;9.90;5.13;;;18.50;99.90;;;;;;5011482;28;20227;-73
2021/08/06 03:48:51;;;;;;;5.93;4.50;;;18.50;99.90;;;;;;5008016;28;20201;-73
2021/08/06 03:51:19;;;;;;;7.47;4.57;;;18.50;99.90;;;;;;5011554;28;20207;-71
2021/08/06 03:53:47;;;;;;;7.35;4.68;;;18.40;99.90;;;;;;5008531;28;20276;-72
2021/08/06 03:56:14;;;;;;;7.00;4.32;;;18.40;99.90;;;;;;5005927;28;20619;-70
2021/08/06 03:58:42;;;;;;;6.10;3.95;;;18.40;99.90;;;;;;5007237;28;20229;-71
2021/08/06 04:01:09;;;;;;;6.55;4.60;;;18.40;99.90;;;;;;5008331;28;20238;-73
2021/08/06 04:03:37;;;;;;;7.78;4.72;;;18.40;99.90;;;;;;5009806;28;20211;-74
2021/08/06 04:06:08;;;;;;;7.25;4.88;;;18.40;99.90;;;;;;5008680;28;20203;-71
2021/08/06 04:08:36;;;;;;;9.38;5.10;;;18.30;99.90;;;;;;5006800;28;20208;-70
2021/08/06 04:11:04;;;;;;;10.55;4.80;;;18.40;99.90;;;;;;5008530;28;20248;-72
2021/08/06 04:13:31;;;;;;;7.07;4.88;;;18.30;99.90;;;;;;5011199;28;20592;-71
2021/08/06 04:15:59;;;;;;;8.40;5.55;;;18.40;99.90;;;;;;5009722;28;20210;-72
2021/08/06 04:18:26;;;;;;;8.93;5.22;;;18.30;99.90;;;;;;5007162;28;20212;-72
2021/08/06 04:20:53;;;;;;;7.05;5.28;;;18.30;99.90;;;;;;5010563;28;20215;-71
2021/08/06 04:23:21;;;;;;;9.23;4.80;;;18.30;99.90;;;;;;5009044;28;20204;-70
2021/08/06 04:25:48;;;;;;;7.80;4.70;;;18.30;99.90;;;;;;5009206;28;20204;-72
2021/08/06 04:28:16;;;;;;;8.05;4.97;;;18.30;99.90;;;;;;5009426;28;20247;-71
2021/08/06 04:30:43;;;;;;;9.13;4.97;;;18.30;99.90;;;;;;5009335;28;20267;-70
2021/08/06 04:33:10;;;;;;;6.50;5.03;;;18.30;99.90;;;;;;5010331;28;20208;-71
2021/08/06 04:35:37;;;;;;;14.70;6.22;;;18.30;99.90;;;;;;5006214;28;20204;-71
2021/08/06 04:38:04;;;;;;;9.57;5.20;;;18.30;99.90;;;;;;5012599;28;20242;-71
2021/08/06 04:40:31;;;;;;;7.32;5.15;;;18.30;99.90;;;;;;5011872;28;20220;-71
2021/08/06 04:43:00;;;;;;;7.30;5.00;;;18.30;99.90;;;;;;5011831;28;20235;-72
2021/08/06 04:45:30;;;;;;;7.18;5.55;;;18.30;99.90;;;;;;5011456;28;20203;-72
2021/08/06 04:48:00;;;;;;;7.22;5.47;;;18.30;99.90;;;;;;5007581;28;20210;-73
2021/08/06 04:50:29;;;;;;;9.52;5.30;;;18.30;99.90;;;;;;5005865;28;20196;-71
2021/08/06 04:53:00;;;;;;;6.50;4.95;;;18.30;99.90;;;;;;5005265;28;20838;-71
2021/08/06 04:55:29;;;;;;;7.45;5.22;;;18.30;99.90;;;;;;5008165;28;20319;-69
2021/08/06 04:57:58;;;;;;;9.10;5.18;;;18.30;99.90;;;;;;5006703;28;20262;-72
2021/08/06 05:00:25;;;;;;;6.28;5.40;;;18.30;99.90;;;;;;5003995;28;20221;-70
2021/08/06 05:02:54;;;;;;;8.55;5.93;;;18.30;99.90;;;;;;5008567;28;20243;-71
2021/08/06 05:05:23;;;;;;;8.32;5.35;;;18.30;99.90;;;;;;5007363;28;20219;-72
2021/08/06 05:07:51;;;;;;;13.45;6.50;;;18.30;99.90;;;;;;5009854;28;20282;-72
2021/08/06 05:10:19;;;;;;;9.98;5.85;;;18.30;99.90;;;;;;5010399;28;20220;-70
2021/08/06 05:12:45;;;;;;;8.88;6.78;;;18.30;99.90;;;;;;5010993;28;20196;-71
2021/08/06 05:15:13;;;;;;;9.90;6.57;;;18.40;99.90;;;;;;5008916;28;20208;-69
2021/08/06 05:17:40;;;;;;;11.93;6.80;;;18.30;99.90;;;;;;5004829;28;20196;-72
2021/08/06 05:20:10;;;;;;;11.60;7.38;;;18.30;99.90;;;;;;5006649;28;20227;-71
2021/08/06 05:22:37;;;;;;;11.90;7.50;;;18.20;99.90;;;;;;5010056;28;20196;-71
2021/08/06 05:25:05;;;;;;;11.63;7.25;;;18.30;99.90;;;;;;5005366;28;20219;-72
2021/08/06 05:27:32;;;;;;;12.05;7.78;;;18.30;99.90;;;;;;5008159;28;20204;-71
2021/08/06 05:29:59;;;;;;;10.90;8.65;;;18.30;99.90;;;;;;5007316;28;20206;-72
2021/08/06 05:32:26;;;;;;;16.42;8.68;;;18.20;99.90;;;;;;5010257;28;20208;-73
2021/08/06 05:34:53;;;;;;;11.23;8.07;;;18.30;99.90;;;;;;5005720;28;20212;-71
2021/08/06 05:37:21;;;;;;;12.95;8.80;;;18.30;99.90;;;;;;5007466;28;20673;-71
2021/08/06 05:39:48;;;;;;;10.40;8.57;;;18.30;99.90;;;;;;5009697;28;20716;-71
2021/08/06 05:42:15;;;;;;;12.45;9.07;;;18.20;99.90;;;;;;5005918;28;20239;-71
2021/08/06 05:44:41;;;;;;;11.98;8.70;;;18.20;99.90;;;;;;5008148;28;20208;-71
2021/08/06 05:47:08;;;;;;;14.18;8.90;;;18.20;99.90;;;;;;5007714;28;20239;-72
2021/08/06 05:49:35;;;;;;;15.10;9.20;;;18.30;99.90;;;;;;5004544;28;20201;-71
2021/08/06 05:52:02;;;;;;;12.55;9.15;;;18.30;99.90;;;;;;5006619;28;20209;-69
2021/08/06 05:54:30;;;;;;;11.95;8.85;;;18.30;99.90;;;;;;5009724;28;20681;-70
2021/08/06 05:56:57;;;;;;;11.60;9.00;;;18.30;99.90;;;;;;5007720;28;20270;-70
2021/08/06 05:59:24;;;;;;;12.48;8.80;;;18.30;99.90;;;;;;5007837;28;20637;-71
2021/08/06 06:01:51;;;;;;;14.55;9.48;;;18.30;99.90;;;;;;5006535;28;20615;-71
2021/08/06 06:04:44;;;;;;;14.35;8.75;;;18.30;99.90;;;;;;5003261;28;20208;-71
2021/08/06 06:07:17;;;;;;;12.38;9.82;;;18.30;99.90;;;;;;5007830;28;20202;-69
2021/08/06 06:09:45;;;;;;;12.20;8.73;;;18.40;99.90;;;;;;5008780;28;20286;-70
2021/08/06 06:12:11;;;;;;;11.63;8.45;;;18.40;99.90;;;;;;5008147;28;20208;-70
2021/08/06 06:14:38;;;;;;;9.35;7.78;;;18.40;99.90;;;;;;5007168;28;20287;-70
2021/08/06 06:17:05;;;;;;;10.85;8.10;;;18.50;99.90;;;;;;5004320;28;20207;-70
2021/08/06 06:19:32;;;;;;;14.57;9.10;;;18.40;99.90;;;;;;5005388;28;20312;-69
2021/08/06 06:22:00;;;;;;;12.40;8.13;;;18.40;99.90;;;;;;5007872;28;20215;-70
2021/08/06 06:24:26;;;;;;;12.77;8.57;;;18.40;99.90;;;;;;5004734;28;20234;-71
2021/08/06 06:26:55;;;;;;;14.43;8.70;;;18.40;99.90;;;;;;5007982;28;20291;-70
2021/08/06 06:29:22;;;;;;;12.52;8.20;;;18.50;99.90;;;;;;5006412;28;20192;-71
2021/08/06 06:31:49;;;;;;;11.15;7.35;;;18.50;99.90;;;;;;5005924;28;20719;-70
2021/08/06 06:34:16;;;;;;;11.95;8.70;;;18.50;99.90;;;;;;5007056;28;20216;-70
2021/08/06 06:36:43;;;;;;;14.30;8.15;;;18.60;99.90;;;;;;5004867;28;20202;-70
2021/08/06 06:39:10;;;;;;;14.57;8.38;;;18.60;99.90;;;;;;5005193;28;20205;-71
2021/08/06 06:41:37;;;;;;;12.10;8.05;;;18.60;99.90;;;;;;5012056;28;20224;-70
2021/08/06 06:44:12;;;;;;;11.98;8.52;;;18.60;99.90;;;;;;5012241;28;20200;-70
2021/08/06 06:46:39;;;;;;;14.18;8.90;;;18.60;99.90;;;;;;5010225;28;20231;-69
2021/08/06 06:49:06;;;;;;;16.02;8.70;;;18.60;99.90;;;;;;5012422;28;20548;-71
2021/08/06 06:51:34;;;;;;;15.70;8.82;;;18.60;99.90;;;;;;5008102;28;20209;-70
2021/08/06 06:54:00;;;;;;;12.90;8.60;;;18.70;99.90;;;;;;5008085;28;20255;-69
2021/08/06 06:56:27;;;;;;;17.95;9.07;;;18.70;99.90;;;;;;5012501;28;20216;-69
2021/08/06 06:58:57;;;;;;;15.77;8.68;;;18.80;99.90;;;;;;5007929;28;20220;-69
2021/08/06 07:01:29;;;;;;;17.05;8.75;;;18.80;99.90;;;;;;5012362;28;20307;-73
2021/08/06 07:03:57;;;;;;;12.88;8.40;;;18.90;99.90;;;;;;5007587;28;20212;-71
2021/08/06 07:06:27;;;;;;;15.25;8.23;;;18.90;99.90;;;;;;5009722;28;20209;-69
2021/08/06 07:08:54;;;;;;;15.65;8.75;;;18.90;99.90;;;;;;5009429;28;20243;-70
2021/08/06 07:11:21;;;;;;;11.90;7.63;;;18.90;99.90;;;;;;5011322;28;20220;-70
2021/08/06 07:13:48;;;;;;;11.63;7.10;;;18.90;99.90;;;;;;5008849;28;20673;-72
2021/08/06 07:16:16;;;;;;;11.65;7.93;;;18.90;99.90;;;;;;5008734;28;20200;-68
2021/08/06 07:18:45;;;;;;;12.07;7.40;;;18.90;99.90;;;;;;5008292;28;20204;-68
2021/08/06 07:21:13;;;;;;;14.48;7.72;;;18.90;99.90;;;;;;5009238;28;20216;-70
2021/08/06 07:23:41;;;;;;;11.18;7.32;;;19.00;99.90;;;;;;5009827;28;20200;-71
2021/08/06 07:26:09;;;;;;;13.35;8.02;;;19.10;99.90;;;;;;5010102;28;20213;-70
2021/08/06 07:28:36;;;;;;;11.85;7.75;;;19.10;99.90;;;;;;5007710;28;20212;-69
2021/08/06 07:31:04;;;;;;;18.88;8.10;;;19.10;99.90;;;;;;5009418;28;20211;-70
2021/08/06 07:33:31;;;;;;;16.98;8.48;;;19.20;99.90;;;;;;5011147;28;20227;-71
2021/08/06 07:36:00;;;;;;;12.02;7.10;;;19.30;99.90;;;;;;5013521;28;20236;-72
2021/08/06 07:38:27;;;;;;;12.93;6.40;;;19.40;99.90;;;;;;5011020;28;20775;-69
2021/08/06 07:40:55;;;;;;;11.95;6.00;;;19.50;99.90;;;;;;5012004;28;20744;-69
2021/08/06 07:43:22;;;;;;;9.52;5.35;;;19.60;99.90;;;;;;5014076;28;20204;-73
2021/08/06 07:45:49;;;;;;;8.70;5.47;;;19.70;99.90;;;;;;5013257;28;20196;-70
2021/08/06 07:48:17;;;;;;;14.63;6.25;;;19.70;99.90;;;;;;5012456;28;20319;-69
2021/08/06 07:50:44;;;;;;;9.15;5.28;;;19.60;99.90;;;;;;5012068;28;20196;-70
2021/08/06 07:53:12;;;;;;;14.18;5.68;;;19.60;99.90;;;;;;5014766;28;20232;-70
2021/08/06 07:55:39;;;;;;;11.15;5.75;;;19.60;99.90;;;;;;5007229;28;20209;-70
2021/08/06 07:58:06;;;;;;;10.85;5.35;;;19.70;99.90;;;;;;5014132;28;20212;-70
2021/08/06 08:00:33;;;;;;;11.88;5.57;;;19.80;99.90;;;;;;5006642;28;20223;-69
2021/08/06 08:03:00;;;;;;;13.02;5.65;;;19.90;99.90;;;;;;5011421;28;20282;-70
2021/08/06 08:05:31;;;;;;;13.90;5.68;;;20.00;99.90;;;;;;5005791;28;20208;-73
2021/08/06 08:08:03;;;;;;;8.75;5.57;;;20.10;99.90;;;;;;5009418;28;20726;-72
2021/08/06 08:10:33;;;;;;;13.65;5.90;;;20.10;99.90;;;;;;5003742;28;20227;-71
2021/08/06 08:13:00;;;;;;;13.82;5.90;;;20.20;99.90;;;;;;5014215;28;20211;-69
2021/08/06 08:15:27;;;;;;;11.27;5.35;;;20.20;99.90;;;;;;5007106;28;20216;-70
2021/08/06 08:17:54;;;;;;;13.80;5.60;;;20.30;99.90;;;;;;5009344;28;20568;-72
2021/08/06 08:20:22;;;;;;;12.57;5.65;;;20.40;99.90;;;;;;5009538;28;20251;-72
2021/08/06 08:22:49;;;;;;;10.43;5.30;;;20.50;99.90;;;;;;5007184;28;20607;-71
2021/08/06 08:25:15;;;;;;;9.82;4.60;;;20.60;99.90;;;;;;5008882;28;20292;-72
2021/08/06 08:27:44;;;;;;;9.38;4.93;;;20.70;99.90;;;;;;5009761;28;20294;-71
2021/08/06 08:30:12;;;;;;;10.40;4.50;;;21.00;99.90;;;;;;5006869;28;20262;-70
2021/08/06 08:32:39;;;;;;;8.85;4.40;;;21.40;99.90;;;;;;5006025;28;20222;-71
2021/08/06 08:35:07;;;;;;;7.47;4.03;;;21.70;99.90;;;;;;5012881;28;20203;-70
2021/08/06 08:37:35;;;;;;;7.43;3.85;;;21.80;99.90;;;;;;5005781;28;20201;-71
2021/08/06 08:40:05;;;;;;;10.93;3.72;;;21.80;99.90;;;;;;5002142;28;20238;-70
2021/08/06 08:42:35;;;;;;;5.45;3.40;;;21.90;99.40;;;;;;5009735;28;20201;-71
2021/08/06 08:45:05;;;;;;;6.28;3.50;;;22.20;99.10;;;;;;5006160;28;20204;-70
2021/08/06 08:47:35;;;;;;;6.13;3.83;;;22.50;98.50;;;;;;5007818;28;21022;-69
2021/08/06 08:50:05;;;;;;;8.02;3.70;;;22.80;97.60;;;;;;5005458;28;20200;-70
2021/08/06 08:52:32;;;;;;;5.85;3.20;;;23.00;97.00;;;;;;5009575;28;20247;-70
2021/08/06 08:55:00;;;;;;;6.00;3.45;;;23.30;96.30;;;;;;5004231;28;20615;-70
2021/08/06 08:57:27;;;;;;;7.63;3.30;;;23.30;95.20;;;;;;5010344;28;20587;-71
2021/08/06 08:59:55;;;;;;;7.65;3.30;;;23.20;94.50;;;;;;5009300;28;20194;-71
2021/08/06 09:02:24;;;;;;;6.13;3.65;;;23.10;94.00;;;;;;5011762;28;20564;-70
2021/08/06 09:05:08;;;;;;;8.52;3.50;;;22.80;93.70;;;;;;5010803;28;20775;-68
2021/08/06 09:07:36;;;;;;;9.52;3.45;;;22.60;93.80;;;;;;5010354;28;20204;-70
2021/08/06 09:10:21;;;;;;;8.20;3.88;;;22.60;94.00;;;;;;5006739;28;20232;-72
2021/08/06 09:13:24;;;;;;;6.82;3.10;;;22.60;94.00;;;;;;4996528;28;20208;-70
2021/08/06 09:15:58;;;;;;;7.18;3.10;;;22.60;93.90;;;;;;5011817;28;20657;-69
2021/08/06 09:18:33;;;;;;;5.78;3.58;;;22.60;93.40;;;;;;5012598;28;20304;-70
2021/08/06 09:21:02;;;;;;;7.15;3.35;;;22.50;93.20;;;;;;5015625;28;20224;-70
2021/08/06 09:23:41;;;;;;;8.20;3.72;;;22.40;93.20;;;;;;5014657;28;20456;-72
2021/08/06 09:26:09;;;;;;;9.40;3.83;;;22.30;93.20;;;;;;5012829;28;20207;-68
2021/08/06 09:28:58;;;;;;;8.88;3.40;;;22.40;93.40;;;;;;5007223;28;20208;-72
2021/08/06 09:31:25;;;;;;;8.55;3.42;;;22.50;93.10;;;;;;5009112;28;20231;-69
2021/08/06 09:34:15;;;;;;;6.43;3.72;;;22.50;93.00;;;;;;5011922;28;20676;-72
2021/08/06 09:37:01;;;;;;;6.47;3.78;;;22.40;92.80;;;;;;5014863;28;20202;-70
2021/08/06 09:39:33;;;;;;;8.88;3.78;;;22.30;92.80;;;;;;5003927;28;20207;-69
2021/08/06 09:41:59;;;;;;;8.82;3.25;;;22.20;92.70;;;;;;5005989;28;20217;-70
2021/08/06 09:44:29;;;;;;;7.60;2.97;;;22.10;92.80;;;;;;5007044;28;20204;-69
2021/08/06 09:46:57;;;;;;;8.13;2.92;;;22.20;93.20;;;;;;5004110;28;20657;-69
2021/08/06 09:49:27;;;;;;;7.00;3.00;;;22.40;93.00;;;;;;5005504;28;20239;-72
2021/08/06 09:51:55;;;;;;;6.15;3.05;;;22.50;92.80;;;;;;5004770;28;20215;-69
2021/08/06 09:54:26;;;;;;;7.13;2.78;;;22.40;92.50;;;;;;5009319;28;20208;-69
2021/08/06 09:57:06;;;;;;;9.38;2.60;;;22.40;92.50;;;;;;5009611;28;20747;-72
2021/08/06 09:59:34;;;;;;;6.63;2.60;;;22.70;93.30;;;;;;5003028;28;20208;-73
2021/08/06 10:02:23;;;;;;;6.53;2.85;;;23.40;92.60;;;;;;5006980;28;20228;-72
2021/08/06 10:05:03;;;;;;;5.72;2.70;;;24.00;91.00;;;;;;5003792;28;20220;-71
2021/08/06 10:07:32;;;;;;;13.25;3.58;;;24.00;90.80;;;;;;5009394;28;20200;-74
2021/08/06 10:09:59;;;;;;;9.45;3.75;;;23.60;91.40;;;;;;5006523;28;20608;-70
2021/08/06 10:12:27;;;;;;;8.43;3.60;;;23.00;92.20;;;;;;5014571;28;20193;-68
2021/08/06 10:14:54;;;;;;;6.57;3.80;;;22.30;93.30;;;;;;5010319;28;20625;-70
2021/08/06 10:17:22;;;;;;;5.18;3.60;;;21.90;94.50;;;;;;5010782;28;20196;-70
2021/08/06 10:19:50;;;;;;;7.13;3.83;;;21.60;95.70;;;;;;5010716;28;20209;-69
2021/08/06 10:22:19;;;;;;;7.03;3.92;;;21.30;96.70;;;;;;5013533;28;20227;-68
2021/08/06 10:24:49;;;;;;;5.55;3.60;;;21.20;97.80;;;;;;5008260;28;20205;-70
2021/08/06 10:27:23;;;;;;;5.18;3.42;;;21.10;98.70;;;;;;5016444;28;20208;-68
2021/08/06 10:30:02;;;;;;;9.20;4.00;;;21.00;99.30;;;;;;5013263;28;20203;-69
2021/08/06 10:32:30;;;;;;;8.13;3.58;;;21.00;99.90;;;;;;5011137;28;20195;-71
2021/08/06 10:35:23;;;;;;;9.85;3.78;;;21.10;99.90;;;;;;5017215;28;20537;-70
2021/08/06 10:38:01;;;;;;;4.72;3.05;;;21.20;99.90;;;;;;5012123;28;20288;-69
2021/08/06 10:40:56;;;;;;;6.50;2.28;;;21.40;99.90;;;;;;5008082;28;20581;-70
2021/08/06 10:43:59;;;;;;;4.43;3.03;;;21.70;99.90;;;;;;5012504;28;20208;-69
2021/08/06 10:46:27;;;;;;;5.18;2.28;;;22.00;99.90;;;;;;5016066;28;20211;-68
2021/08/06 10:48:55;;;;;;;7.57;2.13;;;22.40;99.10;;;;;;5013712;28;20204;-68
2021/08/06 10:51:32;;;;;;;4.72;2.00;;;22.50;98.30;;;;;;5010070;28;20578;-69
2021/08/06 10:54:27;;;;;;;5.22;2.38;;;22.40;97.40;;;;;;5010645;28;20204;-69
2021/08/06 10:57:37;;;;;;;4.22;2.50;;;22.40;97.00;;;;;;5009106;28;20619;-70
2021/08/06 11:00:05;;;;;;;5.55;2.33;;;22.20;96.50;;;;;;4969872;28;20210;-69
2021/08/06 11:02:46;;;;;;;7.57;2.38;;;22.10;96.30;;;;;;5004392;28;20290;-69
2021/08/06 11:05:44;;;;;;;6.25;2.38;;;22.10;96.40;;;;;;5010132;28;20386;-68
2021/08/06 11:09:05;;;;;;;3.17;2.20;;;22.40;96.30;;;;;;5012152;28;20723;-70
2021/08/06 11:11:58;;;;;;;3.75;1.90;;;22.70;96.10;;;;;;5011571;28;20208;-70
2021/08/06 11:15:01;;;;;;;6.15;2.10;;;22.80;95.00;;;;;;5010174;28;20205;-71
2021/08/06 11:17:40;;;;;;;2.33;1.88;;;22.90;94.70;;;;;;5010565;28;20204;-68
2021/08/06 11:20:10;;;;;;;5.00;2.10;;;22.90;94.90;;;;;;5010637;28;20239;-70
2021/08/06 11:22:39;;;;;;;5.50;2.33;;;23.30;94.80;;;;;;5009099;28;20224;-70
2021/08/06 11:25:15;;;;;;;2.78;1.92;;;23.90;94.40;;;;;;5009546;28;20280;-70
2021/08/06 11:27:45;;;;;;;3.70;1.63;;;24.40;93.20;;;;;;5012521;28;20661;-71
2021/08/06 11:30:17;;;;;;;4.38;1.70;;;24.50;91.90;;;;;;5009629;28;20205;-69
2021/08/06 11:32:54;;;;;;;2.85;1.70;;;24.50;91.30;;;;;;5014465;28;20196;-71
2021/08/06 11:35:22;;;;;;;2.15;1.60;;;24.20;90.80;;;;;;5006195;28;20240;-71
2021/08/06 11:37:55;;;;;;;4.78;2.10;;;23.90;90.70;;;;;;5013388;28;20201;-70
2021/08/06 11:40:23;;;;;;;2.60;1.90;;;23.60;90.80;;;;;;5008511;28;20343;-70
2021/08/06 11:42:52;;;;;;;5.72;1.80;;;23.30;91.10;;;;;;5009699;28;20216;-71
2021/08/06 11:45:23;;;;;;;3.78;1.80;;;23.10;91.50;;;;;;5008835;28;20212;-70
2021/08/06 11:47:51;;;;;;;6.63;1.70;;;22.90;91.80;;;;;;5011026;28;20205;-70
2021/08/06 11:50:21;;;;;;;4.68;1.85;;;22.80;92.80;;;;;;5010294;28;20676;-70
2021/08/06 11:52:50;;;;;;;3.80;1.80;;;22.80;93.30;;;;;;5013560;28;20594;-71
2021/08/06 11:55:20;;;;;;;1.70;1.50;;;22.80;93.10;;;;;;5009657;28;20200;-71
2021/08/06 11:57:49;;;;;;;1.58;1.40;;;22.70;92.60;;;;;;5011395;28;20213;-71
2021/08/06 12:00:21;;;;;;;2.15;1.40;;;22.50;92.50;;;;;;5009288;28;20205;-69
2021/08/06 12:03:00;;;;;;;4.70;1.50;;;22.30;92.70;;;;;;5014016;28;20624;-68
2021/08/06 12:05:27;;;;;;;3.75;1.50;;;22.30;93.10;;;;;;5005108;28;20196;-69
2021/08/06 12:07:54;;;;;;;5.25;1.50;;;22.30;93.00;;;;;;5010987;28;20201;-68
2021/08/06 12:10:25;;;;;;;3.17;1.70;;;22.20;92.70;;;;;;5014738;28;20294;-69
2021/08/06 12:12:52;;;;;;;4.88;1.52;;;22.20;92.60;;;;;;5004728;28;20231;-69
2021/08/06 12:15:25;;;;;;;6.43;1.63;;;22.20;92.60;;;;;;5004221;28;20254;-70
2021/08/06 12:18:15;;;;;;;5.85;1.67;;;22.10;92.50;;;;;;5011139;28;20258;-70
2021/08/06 12:20:44;;;;;;;4.88;1.67;;;21.90;92.40;;;;;;5010228;28;20205;-68
2021/08/06 12:23:12;;;;;;;4.60;1.80;;;21.80;92.60;;;;;;5008762;28;20216;-70
2021/08/06 12:25:39;;;;;;;6.53;1.92;;;21.80;92.90;;;;;;5005909;28;20204;-71
2021/08/06 12:28:06;;;;;;;7.00;1.70;;;22.00;93.00;;;;;;5005846;28;20204;-70
2021/08/06 12:30:35;;;;;;;4.70;1.73;;;22.10;92.60;;;;;;5006498;28;20562;-71
2021/08/06 12:33:02;;;;;;;6.22;2.03;;;22.30;92.10;;;;;;5015566;28;20597;-70
2021/08/06 12:35:29;;;;;;;6.20;1.95;;;22.40;91.80;;;;;;5010535;28;20572;-68
2021/08/06 12:37:56;;;;;;;11.20;2.00;;;22.30;91.60;;;;;;5009793;28;20275;-70
2021/08/06 12:40:23;;;;;;;7.15;2.00;;;22.20;91.60;;;;;;5019017;28;20208;-70
2021/08/06 12:42:50;;;;;;;6.93;2.05;;;22.10;91.80;;;;;;5006817;28;20227;-70
2021/08/06 12:45:20;;;;;;;9.25;2.10;;;22.10;91.80;;;;;;5008884;28;20586;-70
2021/08/06 12:47:50;;;;;;;10.20;2.30;;;22.00;91.90;;;;;;5009661;28;20198;-70
2021/08/06 12:50:24;;;;;;;11.10;2.80;;;21.90;92.10;;;;;;5011392;28;20810;-70
2021/08/06 12:53:01;;;;;;;8.07;2.10;;;21.90;92.30;;;;;;5011442;28;20229;-69
2021/08/06 12:55:28;;;;;;;9.45;2.40;;;21.80;92.50;;;;;;5009695;28;20290;-70
2021/08/06 12:57:56;;;;;;;10.75;2.45;;;22.10;92.80;;;;;;5009963;28;20216;-69
2021/08/06 13:00:30;;;;;;;15.13;2.47;;;22.40;92.50;;;;;;5006337;28;20213;-70